Time;durP1;ratioP1;P1;durP2;ratioP2;P2;SDS_P1;SDS_P2;PMS_P1;PMS_P2;Temp;Humidity;BMP_temperature;BMP_pressure;BME280_temperature;BME280_humidity;BME280_pressure;Samples;Min_cycle;Max_cycle;Signal;HPM_P1;HPM_P2
2022/02/26 00:01:28;;;;;;;7.83;4.40;;;3.40;99.90;;;;;;5034314;28;20575;-47
2022/02/26 00:03:54;;;;;;;5.33;4.20;;;3.30;99.90;;;;;;5034305;28;20191;-51
2022/02/26 00:06:19;;;;;;;6.20;4.43;;;3.10;99.90;;;;;;5034132;28;20184;-49
2022/02/26 00:08:45;;;;;;;7.83;3.90;;;3.10;99.90;;;;;;5034247;28;20172;-49
2022/02/26 00:11:10;;;;;;;7.63;4.93;;;3.00;99.90;;;;;;5034067;28;20535;-49
2022/02/26 00:13:36;;;;;;;6.63;4.27;;;3.00;99.90;;;;;;5033853;28;20249;-51
2022/02/26 00:16:01;;;;;;;8.10;4.33;;;3.00;99.90;;;;;;5033843;28;20184;-51
2022/02/26 00:18:27;;;;;;;8.57;4.93;;;3.20;99.90;;;;;;5034095;28;20175;-52
2022/02/26 00:20:54;;;;;;;6.03;4.17;;;3.30;99.90;;;;;;5034019;28;20562;-52
2022/02/26 00:23:20;;;;;;;7.53;4.57;;;3.30;99.90;;;;;;5033919;28;20211;-48
2022/02/26 00:25:45;;;;;;;5.77;4.57;;;3.40;99.90;;;;;;5029540;28;20199;-54
2022/02/26 00:28:11;;;;;;;7.23;4.40;;;3.40;99.90;;;;;;5031178;28;20180;-49
2022/02/26 00:30:37;;;;;;;6.53;4.70;;;3.30;99.90;;;;;;5026747;28;20184;-48
2022/02/26 00:33:02;;;;;;;8.20;4.90;;;3.30;99.90;;;;;;5028692;28;20180;-49
2022/02/26 00:35:28;;;;;;;4.73;4.23;;;3.20;99.90;;;;;;5022348;28;20216;-54
2022/02/26 00:37:53;;;;;;;6.67;4.57;;;3.00;99.90;;;;;;5022754;28;20268;-49
2022/02/26 00:40:19;;;;;;;9.33;4.57;;;2.90;99.90;;;;;;5022939;28;20200;-49
2022/02/26 00:42:45;;;;;;;6.53;3.93;;;2.90;99.90;;;;;;5022883;28;20180;-50
2022/02/26 00:45:10;;;;;;;7.43;3.87;;;2.80;99.90;;;;;;5026907;28;20757;-52
2022/02/26 00:47:36;;;;;;;5.87;4.17;;;2.80;99.90;;;;;;5028935;28;20169;-53
2022/02/26 00:50:03;;;;;;;6.67;4.50;;;2.90;99.90;;;;;;5032190;28;20184;-51
2022/02/26 00:52:31;;;;;;;5.17;3.90;;;2.90;99.90;;;;;;5029016;28;20218;-51
2022/02/26 00:54:58;;;;;;;6.80;3.83;;;3.10;99.90;;;;;;5032385;28;20847;-50
2022/02/26 00:57:24;;;;;;;6.87;4.13;;;3.20;99.90;;;;;;5026811;28;20178;-51
2022/02/26 00:59:49;;;;;;;5.10;3.77;;;3.30;99.90;;;;;;5023940;28;20711;-52
2022/02/26 01:02:17;;;;;;;8.17;4.40;;;3.20;99.90;;;;;;5022012;28;20260;-49
2022/02/26 01:04:43;;;;;;;5.53;3.67;;;3.00;99.90;;;;;;5024421;28;20188;-51
2022/02/26 01:07:10;;;;;;;6.77;4.00;;;2.90;99.90;;;;;;5032978;28;20254;-49
2022/02/26 01:09:36;;;;;;;5.90;4.10;;;3.00;99.90;;;;;;5033165;28;20172;-49
2022/02/26 01:12:03;;;;;;;7.73;4.80;;;3.00;99.90;;;;;;5032666;28;20172;-52
2022/02/26 01:14:29;;;;;;;6.50;4.20;;;2.90;99.90;;;;;;5032978;28;20408;-49
2022/02/26 01:16:55;;;;;;;6.40;4.53;;;2.90;99.90;;;;;;5032740;28;20567;-50
2022/02/26 01:19:21;;;;;;;5.43;4.30;;;2.90;99.90;;;;;;5032971;28;20203;-52
2022/02/26 01:21:46;;;;;;;5.83;4.47;;;2.90;99.90;;;;;;5032843;28;20199;-49
2022/02/26 01:24:13;;;;;;;6.60;4.40;;;3.00;99.90;;;;;;5032817;28;20683;-49
2022/02/26 01:26:38;;;;;;;6.83;4.50;;;3.10;99.90;;;;;;5032390;28;20544;-52
2022/02/26 01:29:05;;;;;;;5.53;4.33;;;3.00;99.90;;;;;;5032676;28;20186;-49
2022/02/26 01:31:33;;;;;;;7.30;4.50;;;2.80;99.90;;;;;;5031637;28;20176;-47
2022/02/26 01:33:59;;;;;;;6.47;4.57;;;2.70;99.90;;;;;;5031707;28;20192;-49
2022/02/26 01:36:26;;;;;;;6.87;4.57;;;2.70;99.90;;;;;;5032405;28;20262;-51
2022/02/26 01:38:52;;;;;;;6.80;5.00;;;2.70;99.90;;;;;;5032542;28;20182;-49
2022/02/26 01:41:18;;;;;;;6.37;4.50;;;2.80;99.90;;;;;;5032355;28;20208;-53
2022/02/26 01:43:44;;;;;;;5.87;4.67;;;2.80;99.90;;;;;;5032292;28;20213;-47
2022/02/26 01:46:10;;;;;;;8.73;5.47;;;2.80;99.90;;;;;;5032211;28;20175;-47
2022/02/26 01:48:36;;;;;;;7.67;5.20;;;2.90;99.90;;;;;;5032425;28;20597;-48
2022/02/26 01:51:03;;;;;;;6.30;4.80;;;2.90;99.90;;;;;;5032444;28;20172;-50
2022/02/26 01:53:29;;;;;;;8.77;5.27;;;2.90;99.90;;;;;;5032239;28;20593;-49
2022/02/26 01:55:55;;;;;;;8.17;5.00;;;2.90;99.90;;;;;;5032018;28;20203;-53
2022/02/26 01:58:21;;;;;;;5.60;4.73;;;2.80;99.90;;;;;;5032101;28;20206;-51
2022/02/26 02:00:46;;;;;;;8.07;5.50;;;2.70;99.90;;;;;;5032278;28;20205;-49
2022/02/26 02:03:12;;;;;;;7.07;4.57;;;2.60;99.90;;;;;;5031253;28;20175;-49
2022/02/26 02:05:38;;;;;;;6.77;5.07;;;2.60;99.90;;;;;;5031975;28;20211;-49
2022/02/26 02:08:04;;;;;;;5.80;4.50;;;2.80;99.90;;;;;;5032032;28;20180;-52
2022/02/26 02:10:29;;;;;;;6.63;4.60;;;2.80;99.90;;;;;;5032103;28;20202;-49
2022/02/26 02:12:55;;;;;;;6.97;4.87;;;2.80;99.90;;;;;;5031969;28;20211;-49
2022/02/26 02:15:38;;;;;;;5.87;4.63;;;2.80;99.90;;;;;;5031257;28;20274;-50
2022/02/26 02:18:06;;;;;;;9.27;5.30;;;2.90;99.90;;;;;;5031966;28;20179;-53
2022/02/26 02:20:31;;;;;;;5.47;4.40;;;2.90;99.90;;;;;;5031930;28;20203;-49
2022/02/26 02:22:57;;;;;;;7.57;4.90;;;2.90;99.90;;;;;;5031941;28;20175;-49
2022/02/26 02:25:29;;;;;;;7.60;4.93;;;2.80;99.90;;;;;;5030564;28;20199;-50
2022/02/26 02:27:55;;;;;;;5.33;4.43;;;2.70;99.90;;;;;;5031530;28;20168;-49
2022/02/26 02:30:25;;;;;;;7.10;4.87;;;2.70;99.90;;;;;;5031876;28;20181;-50
2022/02/26 02:32:52;;;;;;;6.50;4.33;;;2.70;99.90;;;;;;5031881;28;20175;-50
2022/02/26 02:35:28;;;;;;;7.43;4.90;;;2.70;99.90;;;;;;5031690;28;20203;-50
2022/02/26 02:37:56;;;;;;;6.00;4.93;;;2.80;99.90;;;;;;5031586;28;20226;-50
2022/02/26 02:40:23;;;;;;;6.97;4.90;;;2.70;99.90;;;;;;5031723;28;20204;-49
2022/02/26 02:42:50;;;;;;;7.83;4.93;;;2.70;99.90;;;;;;5031633;28;20172;-50
2022/02/26 02:45:15;;;;;;;7.77;5.20;;;2.70;99.90;;;;;;5031586;28;20207;-53
2022/02/26 02:47:41;;;;;;;6.70;5.23;;;2.70;99.90;;;;;;5031338;28;20310;-52
2022/02/26 02:50:08;;;;;;;6.63;4.90;;;2.70;99.90;;;;;;5032839;28;20286;-50
2022/02/26 02:52:34;;;;;;;9.13;5.40;;;2.80;99.90;;;;;;5031689;28;20172;-51
2022/02/26 02:54:59;;;;;;;6.27;4.67;;;2.80;99.90;;;;;;5031599;28;20694;-49
2022/02/26 02:57:25;;;;;;;7.27;4.87;;;2.60;99.90;;;;;;5031140;28;20168;-50
2022/02/26 02:59:51;;;;;;;7.77;5.60;;;2.60;99.90;;;;;;5031547;28;20186;-52
2022/02/26 03:02:16;;;;;;;7.47;5.17;;;2.60;99.90;;;;;;5031516;28;20172;-50
2022/02/26 03:04:42;;;;;;;6.87;5.13;;;2.70;99.90;;;;;;5031497;28;20227;-48
2022/02/26 03:07:07;;;;;;;5.97;4.57;;;2.70;99.90;;;;;;5031255;28;20176;-48
2022/02/26 03:09:33;;;;;;;9.27;5.53;;;2.70;99.90;;;;;;5031502;28;20226;-49
2022/02/26 03:11:58;;;;;;;7.37;5.47;;;2.60;99.90;;;;;;5031223;28;20211;-50
2022/02/26 03:14:24;;;;;;;6.17;4.67;;;2.60;99.90;;;;;;5031405;28;20192;-49
2022/02/26 03:16:49;;;;;;;7.23;5.30;;;2.70;99.90;;;;;;5031043;28;20180;-52
2022/02/26 03:19:15;;;;;;;7.53;5.27;;;2.70;99.90;;;;;;5031378;28;20210;-53
2022/02/26 03:21:40;;;;;;;8.47;5.47;;;2.80;99.90;;;;;;5031341;28;20207;-47
2022/02/26 03:24:08;;;;;;;8.10;5.53;;;2.70;99.90;;;;;;5031346;28;20231;-52
2022/02/26 03:26:34;;;;;;;8.33;5.13;;;2.70;99.90;;;;;;5032688;28;20167;-49
2022/02/26 03:29:00;;;;;;;6.40;5.40;;;;;;;;;;5035045;28;20659;-50
2022/02/26 03:31:26;;;;;;;7.70;5.03;;;2.70;99.90;;;;;;5035006;28;20183;-49
2022/02/26 03:33:51;;;;;;;6.60;5.00;;;2.60;99.90;;;;;;5034894;28;20211;-49
2022/02/26 03:36:17;;;;;;;7.97;5.60;;;2.60;99.90;;;;;;5034687;28;20536;-50
2022/02/26 03:38:42;;;;;;;7.70;5.20;;;2.60;99.90;;;;;;5034862;28;20201;-49
2022/02/26 03:41:13;;;;;;;7.60;5.00;;;2.50;99.90;;;;;;5034715;28;20199;-49
2022/02/26 03:43:39;;;;;;;7.57;4.97;;;2.50;99.90;;;;;;5034639;28;20238;-50
2022/02/26 03:46:05;;;;;;;8.20;5.20;;;2.50;99.90;;;;;;5034410;28;20222;-50
2022/02/26 03:48:30;;;;;;;6.23;4.57;;;2.50;99.90;;;;;;5034685;28;20170;-49
2022/02/26 03:50:57;;;;;;;8.30;5.17;;;2.60;99.90;;;;;;5034652;28;20171;-50
2022/02/26 03:53:23;;;;;;;9.53;5.23;;;2.80;99.90;;;;;;5034596;28;20192;-50
2022/02/26 03:55:48;;;;;;;7.07;5.73;;;2.70;99.90;;;;;;5032997;28;20216;-51
2022/02/26 03:58:14;;;;;;;7.23;4.97;;;2.70;99.90;;;;;;5034416;28;20543;-48
2022/02/26 04:00:40;;;;;;;6.67;5.17;;;2.60;99.90;;;;;;5034448;28;20726;-50
2022/02/26 04:03:05;;;;;;;6.33;4.93;;;2.80;99.90;;;;;;5033148;28;20172;-46
2022/02/26 04:05:31;;;;;;;6.03;4.80;;;2.70;99.90;;;;;;5034247;28;20179;-50
2022/02/26 04:07:56;;;;;;;8.13;5.47;;;2.70;99.90;;;;;;5034331;28;20229;-51
2022/02/26 04:10:22;;;;;;;5.57;4.40;;;2.70;99.90;;;;;;5034263;28;20233;-50
2022/02/26 04:12:47;;;;;;;5.40;4.63;;;2.70;99.90;;;;;;5034211;28;20183;-50
2022/02/26 04:15:13;;;;;;;6.87;5.10;;;2.70;99.90;;;;;;5034078;28;20191;-49
2022/02/26 04:17:38;;;;;;;7.17;5.23;;;2.70;99.90;;;;;;5033841;28;20649;-49
2022/02/26 04:20:05;;;;;;;7.07;4.70;;;2.80;99.90;;;;;;5034079;28;20207;-50
2022/02/26 04:22:30;;;;;;;6.13;5.00;;;2.70;99.90;;;;;;5034206;28;20186;-49
2022/02/26 04:24:56;;;;;;;6.67;4.60;;;2.60;99.90;;;;;;5033968;28;20192;-47
2022/02/26 04:27:21;;;;;;;7.70;4.90;;;2.70;99.90;;;;;;5033606;28;20176;-49
2022/02/26 04:29:47;;;;;;;5.87;5.23;;;2.70;99.90;;;;;;5033863;28;20637;-49
2022/02/26 04:32:13;;;;;;;7.33;4.90;;;2.80;99.90;;;;;;5033937;28;20318;-49
2022/02/26 04:34:39;;;;;;;7.47;5.40;;;2.70;99.90;;;;;;5033808;28;20195;-51
2022/02/26 04:37:04;;;;;;;8.37;5.40;;;2.70;99.90;;;;;;5033332;28;20176;-48
2022/02/26 04:39:30;;;;;;;5.93;5.07;;;2.70;99.90;;;;;;5033241;28;20217;-49
2022/02/26 04:41:55;;;;;;;6.27;4.70;;;2.70;99.90;;;;;;5033614;28;20672;-49
2022/02/26 04:44:21;;;;;;;6.13;5.20;;;2.70;99.90;;;;;;5033512;28;20211;-50
2022/02/26 04:46:46;;;;;;;7.23;5.30;;;2.60;99.90;;;;;;5033382;28;20199;-49
2022/02/26 04:49:12;;;;;;;8.43;5.67;;;2.60;99.90;;;;;;5033541;28;20183;-49
2022/02/26 04:51:37;;;;;;;5.03;4.53;;;2.50;99.90;;;;;;5033564;28;20179;-52
2022/02/26 04:54:03;;;;;;;5.93;5.30;;;2.50;99.90;;;;;;5033443;28;20199;-50
2022/02/26 04:56:29;;;;;;;7.27;4.97;;;2.50;99.90;;;;;;5033052;28;20239;-50
2022/02/26 04:58:54;;;;;;;6.87;5.00;;;2.60;99.90;;;;;;5033260;28;20649;-52
2022/02/26 05:01:20;;;;;;;6.57;5.43;;;2.70;99.90;;;;;;5033289;28;20564;-49
2022/02/26 05:03:45;;;;;;;6.47;5.13;;;4.30;99.90;;;;;;5033277;28;20196;-49
2022/02/26 05:06:11;;;;;;;7.97;4.77;;;2.60;99.90;;;;;;5032996;28;20172;-51
2022/02/26 05:08:36;;;;;;;5.43;4.90;;;2.60;99.90;;;;;;5033147;28;20180;-50
2022/02/26 05:11:02;;;;;;;8.27;5.53;;;2.60;99.90;;;;;;5033242;28;20183;-49
2022/02/26 05:13:28;;;;;;;8.47;5.30;;;2.60;99.90;;;;;;5032886;28;20191;-50
2022/02/26 05:15:53;;;;;;;8.07;5.43;;;2.60;99.90;;;;;;5032760;28;20657;-52
2022/02/26 05:18:19;;;;;;;6.47;5.30;;;2.60;99.90;;;;;;5032382;28;20207;-49
2022/02/26 05:20:44;;;;;;;8.17;5.63;;;2.40;99.90;;;;;;5031613;28;20206;-51
2022/02/26 05:23:10;;;;;;;8.07;5.07;;;2.80;99.90;;;;;;5032867;28;20242;-49
2022/02/26 05:25:35;;;;;;;8.10;5.40;;;2.50;99.90;;;;;;5032649;28;20183;-49
2022/02/26 05:28:01;;;;;;;5.37;4.83;;;2.60;99.90;;;;;;5031448;28;20180;-50
2022/02/26 05:30:27;;;;;;;6.37;4.93;;;2.70;99.90;;;;;;5032802;28;20195;-50
2022/02/26 05:32:53;;;;;;;5.63;4.77;;;2.90;99.90;;;;;;5032768;28;20667;-49
2022/02/26 05:35:19;;;;;;;8.17;5.43;;;3.00;99.90;;;;;;5032708;28;20234;-49
2022/02/26 05:37:44;;;;;;;6.53;5.13;;;2.80;99.90;;;;;;5032359;28;20183;-50
2022/02/26 05:40:11;;;;;;;6.37;5.00;;;2.60;99.90;;;;;;5032588;28;20192;-49
2022/02/26 05:42:36;;;;;;;7.27;5.20;;;2.50;99.90;;;;;;5032416;28;20168;-50
2022/02/26 05:45:02;;;;;;;5.37;4.63;;;2.70;99.90;;;;;;5032384;28;20680;-50
2022/02/26 05:47:29;;;;;;;7.03;5.33;;;2.60;99.90;;;;;;5032378;28;20191;-49
2022/02/26 05:49:54;;;;;;;8.13;5.50;;;2.80;99.90;;;;;;5032523;28;20243;-49
2022/02/26 05:52:20;;;;;;;6.17;5.03;;;2.90;99.90;;;;;;5032396;28;20199;-50
2022/02/26 05:54:46;;;;;;;9.07;5.83;;;2.90;99.90;;;;;;5032333;28;20744;-50
2022/02/26 05:57:11;;;;;;;7.27;5.40;;;2.90;99.90;;;;;;5031931;28;20698;-50
2022/02/26 05:59:37;;;;;;;6.83;5.20;;;2.90;99.90;;;;;;5032269;28;20579;-48
2022/02/26 06:02:03;;;;;;;7.83;5.53;;;3.00;99.90;;;;;;5032224;28;20204;-50
2022/02/26 06:04:28;;;;;;;7.00;5.30;;;2.90;99.90;;;;;;5032163;28;20242;-49
2022/02/26 06:06:54;;;;;;;8.23;5.63;;;2.90;99.90;;;;;;5030607;28;20171;-50
2022/02/26 06:09:20;;;;;;;6.77;5.00;;;3.00;99.90;;;;;;5032152;28;20178;-49
2022/02/26 06:11:45;;;;;;;7.50;5.83;;;3.10;99.90;;;;;;5031974;28;20262;-49
2022/02/26 06:14:11;;;;;;;9.87;5.77;;;3.00;99.90;;;;;;5032058;28;20619;-52
2022/02/26 06:16:36;;;;;;;8.67;5.63;;;3.00;99.90;;;;;;5031824;28;20168;-49
2022/02/26 06:19:02;;;;;;;6.50;5.10;;;3.00;99.90;;;;;;5032193;28;20172;-51
2022/02/26 06:21:27;;;;;;;8.40;5.77;;;2.90;99.90;;;;;;5031916;28;20606;-50
2022/02/26 06:23:53;;;;;;;6.97;5.20;;;2.90;99.90;;;;;;5031961;28;20192;-49
2022/02/26 06:26:18;;;;;;;7.20;5.70;;;2.80;99.90;;;;;;5031705;28;20176;-50
2022/02/26 06:28:44;;;;;;;7.83;5.47;;;2.80;99.90;;;;;;5031671;28;20564;-50
2022/02/26 06:31:10;;;;;;;8.37;5.43;;;;;;;;;;5030760;28;20537;-50
2022/02/26 06:33:35;;;;;;;7.53;5.47;;;3.00;99.90;;;;;;5031829;28;20555;-49
2022/02/26 06:36:01;;;;;;;7.20;5.47;;;3.00;99.90;;;;;;5031557;28;20245;-49
2022/02/26 06:38:26;;;;;;;7.63;5.50;;;3.00;99.90;;;;;;5031764;28;20176;-50
2022/02/26 06:40:52;;;;;;;8.27;5.57;;;3.10;99.90;;;;;;5031782;28;20192;-49
2022/02/26 06:43:17;;;;;;;8.10;5.43;;;3.10;99.90;;;;;;5031473;28;20615;-50
2022/02/26 06:45:43;;;;;;;8.10;5.17;;;3.00;99.90;;;;;;5031480;28;20423;-49
2022/02/26 06:48:09;;;;;;;7.33;5.23;;;3.00;99.90;;;;;;5030432;28;20583;-49
2022/02/26 06:50:34;;;;;;;8.03;5.43;;;3.10;99.90;;;;;;5031685;28;20172;-50
2022/02/26 06:53:00;;;;;;;7.43;5.63;;;3.00;99.90;;;;;;5031718;28;20204;-48
2022/02/26 06:55:25;;;;;;;7.67;5.30;;;2.90;99.90;;;;;;5030328;28;20187;-48
2022/02/26 06:57:51;;;;;;;7.50;5.23;;;2.80;99.90;;;;;;5031075;28;20172;-49
2022/02/26 07:00:17;;;;;;;9.43;5.47;;;2.90;99.90;;;;;;5031764;28;20204;-47
2022/02/26 07:02:43;;;;;;;7.33;5.43;;;3.00;99.90;;;;;;5035491;28;20172;-48
2022/02/26 07:05:09;;;;;;;7.63;5.13;;;3.10;99.90;;;;;;5035412;28;20195;-47
2022/02/26 07:07:35;;;;;;;6.60;5.07;;;3.20;99.90;;;;;;5035190;28;20203;-46
2022/02/26 07:10:00;;;;;;;7.07;4.93;;;3.30;99.90;;;;;;5035432;28;20203;-50
2022/02/26 07:12:26;;;;;;;6.67;4.90;;;3.30;99.90;;;;;;5035121;28;20168;-52
2022/02/26 07:14:51;;;;;;;6.03;4.80;;;3.30;99.90;;;;;;5035316;28;20253;-48
2022/02/26 07:17:17;;;;;;;6.57;5.03;;;3.30;99.90;;;;;;5035017;28;20176;-51
2022/02/26 07:19:43;;;;;;;6.37;4.93;;;3.30;99.90;;;;;;5035285;28;20243;-51
2022/02/26 07:22:08;;;;;;;6.60;4.80;;;3.20;99.90;;;;;;5035100;28;20210;-49
2022/02/26 07:24:34;;;;;;;6.70;4.77;;;3.30;99.90;;;;;;5035116;28;20664;-47
2022/02/26 07:27:00;;;;;;;6.13;4.70;;;3.40;99.90;;;;;;5034633;28;20171;-48
2022/02/26 07:29:25;;;;;;;8.33;4.90;;;3.40;99.90;;;;;;5035047;28;20171;-51
2022/02/26 07:31:51;;;;;;;5.97;4.63;;;3.30;99.90;;;;;;5035088;28;20175;-47
2022/02/26 07:34:16;;;;;;;5.10;4.13;;;3.40;99.90;;;;;;5034846;28;20200;-51
2022/02/26 07:36:42;;;;;;;6.60;4.90;;;3.40;99.90;;;;;;5034595;28;20171;-49
2022/02/26 07:39:08;;;;;;;6.70;4.43;;;3.50;99.90;;;;;;5030477;28;20274;-46
2022/02/26 07:41:34;;;;;;;7.73;4.60;;;3.50;99.90;;;;;;5028808;28;20198;-50
2022/02/26 07:43:59;;;;;;;7.63;4.63;;;3.60;99.90;;;;;;5033138;28;20298;-47
2022/02/26 07:46:25;;;;;;;5.77;4.47;;;3.70;99.90;;;;;;5032996;28;20176;-49
2022/02/26 07:48:50;;;;;;;4.97;4.37;;;3.90;99.90;;;;;;5031261;28;20172;-49
2022/02/26 07:51:16;;;;;;;6.20;4.53;;;3.90;99.90;;;;;;5024005;28;20177;-49
2022/02/26 07:53:44;;;;;;;5.60;4.43;;;3.90;99.90;;;;;;5021975;28;20192;-49
2022/02/26 07:56:10;;;;;;;7.63;4.40;;;3.90;99.90;;;;;;5028439;28;20692;-49
2022/02/26 07:58:36;;;;;;;7.33;4.80;;;3.90;99.90;;;;;;5033927;28;20180;-49
2022/02/26 08:01:01;;;;;;;7.00;4.10;;;4.10;99.90;;;;;;5034258;28;20213;-49
2022/02/26 08:03:27;;;;;;;7.60;4.47;;;4.10;99.90;;;;;;5033991;28;20195;-49
2022/02/26 08:05:52;;;;;;;5.90;4.13;;;4.00;99.90;;;;;;5033760;28;20179;-50
2022/02/26 08:08:18;;;;;;;7.23;4.40;;;4.00;99.90;;;;;;5033899;28;20176;-49
2022/02/26 08:10:44;;;;;;;5.10;4.10;;;4.20;99.90;;;;;;5033939;28;20188;-51
2022/02/26 08:13:10;;;;;;;5.40;4.00;;;4.80;99.90;;;;;;5032747;28;20265;-49
2022/02/26 08:15:35;;;;;;;8.33;4.23;;;4.60;99.90;;;;;;5033847;28;20195;-48
2022/02/26 08:18:01;;;;;;;7.67;4.10;;;4.70;99.90;;;;;;5034228;28;20204;-47
2022/02/26 08:20:26;;;;;;;6.37;4.77;;;4.70;99.90;;;;;;5033886;28;20203;-52
2022/02/26 08:22:56;;;;;;;7.03;4.17;;;4.70;99.90;;;;;;5034006;28;20160;-50
2022/02/26 08:25:22;;;;;;;5.70;4.13;;;4.90;99.90;;;;;;5034315;28;20187;-49
2022/02/26 08:27:48;;;;;;;6.83;4.20;;;6.50;99.90;;;;;;5033554;28;20175;-47
2022/02/26 08:30:16;;;;;;;5.43;3.93;;;5.00;99.90;;;;;;5033810;28;20207;-46
2022/02/26 08:32:43;;;;;;;5.63;3.83;;;5.10;99.90;;;;;;5032261;28;20262;-49
2022/02/26 08:35:09;;;;;;;5.63;4.17;;;5.10;99.90;;;;;;5029907;28;20206;-52
2022/02/26 08:37:36;;;;;;;6.40;4.03;;;4.80;99.90;;;;;;5032972;28;20184;-53
2022/02/26 08:40:03;;;;;;;7.20;4.30;;;4.70;99.90;;;;;;5033187;28;20190;-55
2022/02/26 08:42:28;;;;;;;6.70;4.67;;;4.60;99.90;;;;;;5033176;28;20267;-49
2022/02/26 08:44:54;;;;;;;7.20;4.30;;;4.40;99.90;;;;;;5026852;28;20297;-52
2022/02/26 08:47:20;;;;;;;7.37;4.20;;;4.40;99.90;;;;;;5025397;28;20204;-44
2022/02/26 08:49:46;;;;;;;6.80;4.20;;;4.40;99.90;;;;;;5033621;28;20172;-51
2022/02/26 08:52:12;;;;;;;5.77;3.73;;;4.50;99.90;;;;;;5031962;28;20267;-54
2022/02/26 08:54:38;;;;;;;6.17;3.80;;;5.30;99.90;;;;;;5032665;28;20357;-48
2022/02/26 08:57:04;;;;;;;5.20;3.30;;;6.30;99.90;;;;;;5030926;28;20176;-50
2022/02/26 08:59:30;;;;;;;5.63;3.90;;;7.30;99.90;;;;;;5032546;28;20179;-48
2022/02/26 09:01:56;;;;;;;7.03;3.40;;;7.80;99.90;;;;;;5028216;28;20215;-50
2022/02/26 09:04:22;;;;;;;5.17;3.40;;;7.60;99.90;;;;;;5030526;28;20197;-51
2022/02/26 09:06:48;;;;;;;4.27;3.13;;;7.70;99.90;;;;;;5032686;28;20564;-50
2022/02/26 09:09:13;;;;;;;5.50;3.67;;;7.60;99.90;;;;;;5031993;28;20536;-49
2022/02/26 09:11:41;;;;;;;5.83;3.57;;;7.70;99.90;;;;;;5032025;28;20179;-51
2022/02/26 09:14:07;;;;;;;4.70;3.27;;;7.90;99.90;;;;;;5032140;28;20203;-50
2022/02/26 09:16:32;;;;;;;3.80;2.60;;;8.60;99.90;;;;;;5029741;28;20187;-48
2022/02/26 09:18:58;;;;;;;4.07;2.30;;;9.80;99.90;;;;;;5020630;28;20187;-50
2022/02/26 09:21:24;;;;;;;5.53;2.47;;;10.70;99.90;;;;;;5031861;28;20231;-49
2022/02/26 09:23:50;;;;;;;3.77;2.20;;;11.40;99.90;;;;;;5031977;28;20219;-52
2022/02/26 09:26:16;;;;;;;4.00;2.03;;;11.70;99.90;;;;;;5032247;28;20595;-50
2022/02/26 09:28:42;;;;;;;3.97;2.60;;;12.20;99.90;;;;;;5031151;28;20712;-53
2022/02/26 09:31:09;;;;;;;2.83;2.00;;;12.40;99.70;;;;;;5032591;28;20667;-50
2022/02/26 09:33:36;;;;;;;4.37;2.17;;;12.40;99.40;;;;;;5031924;28;20197;-52
2022/02/26 09:36:02;;;;;;;5.17;2.67;;;12.60;99.40;;;;;;5027375;28;20249;-49
2022/02/26 09:38:28;;;;;;;4.83;2.20;;;13.10;97.80;;;;;;5028531;28;20194;-50
2022/02/26 09:40:56;;;;;;;3.07;1.97;;;13.70;96.90;;;;;;5028919;28;20204;-50
2022/02/26 09:43:22;;;;;;;4.47;2.20;;;14.80;95.80;;;;;;5023105;28;20550;-55
2022/02/26 09:45:52;;;;;;;4.67;2.37;;;15.60;92.90;;;;;;5022144;28;20176;-50
2022/02/26 09:48:18;;;;;;;3.47;1.90;;;15.30;92.10;;;;;;5014577;28;20185;-54
2022/02/26 09:50:44;;;;;;;3.47;1.93;;;14.80;93.00;;;;;;5014510;28;20184;-52
2022/02/26 09:53:11;;;;;;;4.53;2.20;;;15.40;92.10;;;;;;5021758;28;20251;-54
2022/02/26 09:55:37;;;;;;;4.00;2.17;;;15.20;92.70;;;;;;5020172;28;20222;-52
2022/02/26 09:58:03;;;;;;;3.67;1.80;;;16.70;92.30;;;;;;5027546;28;20176;-52
2022/02/26 10:00:30;;;;;;;5.00;2.13;;;17.60;84.50;;;;;;5031691;28;20568;-50
2022/02/26 10:02:55;;;;;;;3.17;1.93;;;16.90;84.30;;;;;;5028819;28;20172;-51
2022/02/26 10:05:21;;;;;;;3.85;1.70;;;18.10;85.30;;;;;;5027775;28;20203;-55
2022/02/26 10:07:49;;;;;;;3.15;1.70;;;21.00;81.30;;;;;;5024459;28;20234;-54
2022/02/26 10:10:15;;;;;;;3.33;1.40;;;24.10;70.10;;;;;;5031323;28;20176;-54
2022/02/26 10:12:41;;;;;;;2.78;1.60;;;26.30;57.10;;;;;;5031138;28;20259;-50
2022/02/26 10:15:29;;;;;;;4.28;2.00;;;27.40;51.40;;;;;;5031538;28;20195;-52
2022/02/26 10:18:05;;;;;;;3.00;1.80;;;27.00;48.90;;;;;;5031310;28;20227;-50
2022/02/26 10:20:32;;;;;;;2.97;2.05;;;26.20;47.60;;;;;;5031136;28;20241;-52
2022/02/26 10:22:58;;;;;;;3.63;1.77;;;24.30;48.90;;;;;;5027939;28;20666;-49
2022/02/26 10:25:28;;;;;;;4.47;2.00;;;21.80;50.60;;;;;;5024031;28;20206;-52
2022/02/26 10:28:01;;;;;;;3.33;1.90;;;20.00;54.10;;;;;;5021883;28;20213;-57
2022/02/26 10:30:36;;;;;;;2.93;1.93;;;18.50;56.20;;;;;;5030807;28;20188;-50
2022/02/26 10:33:20;;;;;;;3.90;2.00;;;16.40;58.20;;;;;;5027006;28;20183;-50
2022/02/26 10:35:59;;;;;;;4.47;2.13;;;14.60;62.70;;;;;;5010834;28;20226;-52
2022/02/26 10:38:32;;;;;;;2.53;2.03;;;13.50;67.30;;;;;;5026638;28;20270;-54
2022/02/26 10:41:06;;;;;;;3.03;2.10;;;12.40;70.90;;;;;;5018318;28;20215;-53
2022/02/26 10:43:55;;;;;;;5.47;2.47;;;11.20;77.20;;;;;;5030944;28;20283;-55
2022/02/26 10:46:33;;;;;;;4.00;2.40;;;10.30;82.70;;;;;;5030417;28;20254;-51
2022/02/26 10:49:03;;;;;;;7.50;3.07;;;9.50;87.30;;;;;;5031176;28;20176;-51
2022/02/26 10:51:32;;;;;;;4.67;2.43;;;8.90;90.40;;;;;;5031134;28;20178;-49
2022/02/26 10:53:59;;;;;;;6.30;2.70;;;8.90;92.40;;;;;;5031282;28;20202;-54
2022/02/26 10:56:42;;;;;;;4.07;2.30;;;8.90;93.20;;;;;;5030420;28;20180;-51
2022/02/26 10:59:10;;;;;;;3.90;2.33;;;9.10;93.70;;;;;;5019512;28;20172;-54
2022/02/26 11:01:36;;;;;;;6.60;2.60;;;9.00;92.70;;;;;;5011084;28;20192;-51
2022/02/26 11:04:02;;;;;;;4.17;2.30;;;8.80;93.60;;;;;;5022725;28;20204;-50
2022/02/26 11:06:29;;;;;;;5.30;3.03;;;9.20;93.80;;;;;;5029164;28;20180;-49
2022/02/26 11:08:55;;;;;;;4.47;2.33;;;9.40;94.30;;;;;;5013535;28;20540;-51
2022/02/26 11:11:23;;;;;;;5.53;2.33;;;9.40;93.70;;;;;;5031036;28;20183;-52
2022/02/26 11:13:50;;;;;;;4.47;1.90;;;9.70;94.00;;;;;;5030882;28;20191;-51
2022/02/26 11:16:18;;;;;;;5.00;2.07;;;10.40;92.40;;;;;;5029034;28;20183;-49
2022/02/26 11:18:51;;;;;;;5.07;1.60;;;10.70;89.50;;;;;;5007108;28;20179;-48
2022/02/26 11:21:18;;;;;;;3.87;1.83;;;10.30;86.20;;;;;;5030258;28;20242;-47
2022/02/26 11:23:45;;;;;;;4.70;1.70;;;9.80;87.90;;;;;;5029546;28;20196;-50
2022/02/26 11:26:12;;;;;;;2.93;1.40;;;12.30;89.10;;;;;;5030825;28;20196;-48
2022/02/26 11:28:41;;;;;;;3.63;1.47;;;11.40;83.50;;;;;;5030735;28;20218;-52
2022/02/26 11:31:14;;;;;;;3.57;1.53;;;11.20;80.20;;;;;;5027646;28;20181;-50
2022/02/26 11:33:44;;;;;;;4.60;1.67;;;10.70;81.50;;;;;;5023217;28;20191;-55
2022/02/26 11:36:10;;;;;;;5.70;2.23;;;10.20;83.90;;;;;;5030704;28;20322;-51
2022/02/26 11:38:38;;;;;;;4.00;1.60;;;10.00;85.70;;;;;;5028935;28;20258;-50
2022/02/26 11:41:25;;;;;;;4.60;1.70;;;10.60;89.30;;;;;;5013014;28;20211;-55
2022/02/26 11:43:59;;;;;;;5.17;1.60;;;12.90;86.10;;;;;;5030190;28;20282;-52
2022/02/26 11:46:31;;;;;;;4.33;1.57;;;15.90;75.40;;;;;;5030504;28;20269;-53
2022/02/26 11:48:59;;;;;;;5.03;1.50;;;16.70;64.50;;;;;;5033077;28;20172;-51
2022/02/26 11:51:33;;;;;;;3.27;1.30;;;15.60;65.40;;;;;;5032953;28;20183;-53
2022/02/26 11:53:58;;;;;;;4.13;1.23;;;15.00;65.80;;;;;;5021223;28;20232;-50
2022/02/26 11:56:39;;;;;;;4.40;1.60;;;14.60;66.30;;;;;;4996601;28;20219;-48
2022/02/26 11:59:05;;;;;;;4.00;1.57;;;15.90;68.40;;;;;;5025985;28;20196;-51
2022/02/26 12:01:31;;;;;;;2.70;1.60;;;13.50;62.50;;;;;;5032898;28;20254;-54
2022/02/26 12:03:57;;;;;;;3.60;1.30;;;12.60;65.50;;;;;;5032764;28;20205;-54
2022/02/26 12:06:26;;;;;;;2.03;1.27;;;11.70;66.50;;;;;;5033876;28;20639;-57
2022/02/26 12:09:08;;;;;;;2.30;1.43;;;11.60;71.10;;;;;;5033769;28;20180;-54
2022/02/26 12:11:36;;;;;;;6.00;2.30;;;11.30;68.00;;;;;;5032846;28;20229;-50
2022/02/26 12:14:25;;;;;;;4.63;2.10;;;11.10;73.30;;;;;;5033619;28;20612;-50
2022/02/26 12:17:11;;;;;;;4.53;2.30;;;10.80;77.40;;;;;;5033582;28;20233;-49
2022/02/26 12:19:46;;;;;;;6.60;2.20;;;10.70;76.60;;;;;;5021519;28;20238;-52
2022/02/26 12:22:12;;;;;;;6.50;1.93;;;10.30;79.50;;;;;;5033703;28;20202;-50
2022/02/26 12:24:52;;;;;;;3.77;1.47;;;10.30;79.00;;;;;;5033671;28;20199;-51
2022/02/26 12:27:31;;;;;;;3.07;1.20;;;10.50;75.60;;;;;;5033038;28;20603;-55
2022/02/26 12:29:57;;;;;;;3.37;1.43;;;10.80;73.50;;;;;;5033745;28;20164;-52
2022/02/26 12:32:25;;;;;;;3.60;1.63;;;11.00;74.50;;;;;;5033244;28;20183;-50
2022/02/26 12:35:10;;;;;;;4.73;1.80;;;11.20;72.90;;;;;;5033495;28;20271;-50
2022/02/26 12:37:42;;;;;;;3.70;1.37;;;11.20;74.40;;;;;;5032755;28;20168;-48
2022/02/26 12:40:09;;;;;;;3.17;1.70;;;10.90;73.20;;;;;;5032008;28;20233;-50
2022/02/26 12:42:43;;;;;;;2.77;1.70;;;10.60;74.70;;;;;;5025176;28;20172;-52
2022/02/26 12:45:13;;;;;;;5.07;1.90;;;9.90;77.80;;;;;;5032705;28;20253;-50
2022/02/26 12:47:39;;;;;;;2.63;1.40;;;9.50;81.00;;;;;;5032407;28;20171;-50
2022/02/26 12:50:08;;;;;;;5.10;1.87;;;9.00;81.90;;;;;;5033439;28;20498;-51
2022/02/26 12:52:38;;;;;;;3.93;1.90;;;8.60;80.20;;;;;;5033168;28;20176;-50
2022/02/26 12:55:12;;;;;;;2.37;1.63;;;8.30;84.20;;;;;;5032730;28;20184;-50